VIRTUAL NORWEGIAN AEROCLUB

VIRTUAL NORWEGIAN AEROCLUB! A new look to our va.




 METAR AND TAF INFORMATION
METAR FOR LDPL
ADDS - METARS form results

(1606 UTC 19 September 2020)
Data provider http://aviationweather.gov/metar/data/
 
METAR text: LDPL 191600Z 29007KT CAVOK 22/14 Q1017 NOSIG
Conditions at: LDPL (PULA , HR) observed 1600 UTC 19 September 2020
Temperature: 22.0°C (72°F)
Dewpoint: 14.0°C (57°F) [RH = 60%]
Pressure (altimeter): 30.03 inches Hg (1017.0 mb)
Winds: from the WNW (290 degrees) at 8 MPH (7 knots; 3.6 m/s)
Visibility: 6 or more miles (10+ km)
Ceiling: ceiling and visibility are OK
Clouds: unknown
Weather: no significant weather observed at this time

METAR text: LDPL 191530Z 29007KT CAVOK 23/14 Q1017 NOSIG
Conditions at: LDPL (PULA , HR) observed 1530 UTC 19 September 2020
Temperature: 23.0°C (73°F)
Dewpoint: 14.0°C (57°F) [RH = 57%]
Pressure (altimeter): 30.03 inches Hg (1017.0 mb)
Winds: from the WNW (290 degrees) at 8 MPH (7 knots; 3.6 m/s)
Visibility: 6 or more miles (10+ km)
Ceiling: ceiling and visibility are OK
Clouds: unknown
Weather: no significant weather observed at this time

Forecast for: LDPL (PULA , HR)
Text: TAF LDPL 191125Z 1912/2012 09006KT CAVOK TX26/1912Z TN15/2004Z
Forecast period: 1200 UTC 19 September 2020 to 1000 UTC 20 September 2020
Forecast type: FROM: standard forecast or significant change
Winds: from the E (90 degrees) at 7 MPH (6 knots; 3.1 m/s)
Visibility: 6 or more miles (10+ km)
Ceiling: unknown
Clouds: missing
Weather: no significant weather forecast for this period
Text: PROB30 1913/1917 30008KT
Forecast period: 1300 to 1700 UTC 19 September 2020
Forecast type: PROBABLE: 30 percent likelihood of the following during this time
Winds: from the WNW (300 degrees) at 9 MPH (8 knots; 4.1 m/s)
Visibility: missing
Ceiling: unknown
Clouds: missing
Weather: no significant weather forecast for this period
Text: BECMG 2010/2012 20008KT
Forecast period: 1000 to 1200 UTC 20 September 2020
Forecast type: BECOMING: Conditions expected to become as follows by 1200 UTC 20 September 2020
Winds: from the SSW (200 degrees) at 9 MPH (8 knots; 4.1 m/s)
Visibility: 6 or more miles (10+ km)
Ceiling: unknown
Clouds: missing
Weather: no significant weather forecast for this period

 AIRPORT MAP

 RUNWAY INFORMATION
Runway 09 Runway length 9678 ft Runway width 148 ft
Runway elevation 169 ft Runway displaced threshold 0 ft Runway heading 88
Runway 27 Runway length 9678 ft Runway width 148 ft
Runway elevation 274 ft Runway displaced threshold 0 ft Runway heading 268

 AIRPORT FREQUENCIES
Type APP Name APP Frequency 118.4 MHZ
Type TWR Name TWR Frequency 120 MHZ

 AIRPORT NEAR NAVIGATION AIDS
Type NDB Name Cres Frequency 433 KHZ
Type NDB Name Kavran Frequency 265 KHZ
Type NDB Name Pula Frequency 352 KHZ
Type VOR-DME Name Pula Frequency 111250 KHZ